createdAt,value
2018-10-18T00:00:09.547Z,100478.27
2018-10-18T00:02:44.329Z,100477.70
2018-10-18T00:05:19.962Z,100481.43
2018-10-18T00:07:55.806Z,100476.74
2018-10-18T00:10:30.685Z,100476.30
2018-10-18T00:13:05.515Z,100474.86
2018-10-18T00:15:39.868Z,100473.71
2018-10-18T00:18:15.752Z,100480.51
2018-10-18T00:20:49.594Z,100483.01
2018-10-18T00:23:23.145Z,100485.41
2018-10-18T00:25:55.954Z,100481.94
2018-10-18T00:28:29.768Z,100480.50
2018-10-18T00:31:02.788Z,100484.37
2018-10-18T00:33:38.717Z,100480.86
2018-10-18T00:36:19.857Z,100484.35
2018-10-18T00:38:56.187Z,100486.66
2018-10-18T00:41:33.694Z,100485.50
2018-10-18T00:44:08.239Z,100489.30
2018-10-18T00:46:41.847Z,100493.83
2018-10-18T00:49:16.513Z,100495.72
2018-10-18T00:51:50.025Z,100493.29
2018-10-18T00:54:23.536Z,100499.02
2018-10-18T00:56:56.254Z,100504.08
2018-10-18T00:59:30.317Z,100503.41
2018-10-18T01:02:03.761Z,100505.99
2018-10-18T01:04:37.301Z,100510.95
2018-10-18T01:07:10.164Z,100515.83
2018-10-18T01:09:43.291Z,100520.09
2018-10-18T01:12:16.235Z,100522.06
2018-10-18T01:14:48.546Z,100521.12
2018-10-18T01:17:21.789Z,100517.98
2018-10-18T01:19:54.415Z,100516.62
2018-10-18T01:22:26.872Z,100512.20
2018-10-18T01:25:02.013Z,100513.12
2018-10-18T01:27:35.174Z,100514.39
2018-10-18T01:30:15.302Z,100511.24
2018-10-18T01:32:47.806Z,100511.16
2018-10-18T01:35:20.205Z,100520.51
2018-10-18T01:37:52.621Z,100520.95
2018-10-18T01:40:25.427Z,100520.72
2018-10-18T01:42:57.746Z,100520.44
2018-10-18T01:45:30.088Z,100520.21
2018-10-18T01:48:04.860Z,100521.49
2018-10-18T01:50:37.236Z,100519.59
2018-10-18T01:53:09.745Z,100515.99
2018-10-18T01:55:42.538Z,100518.55
2018-10-18T01:58:18.497Z,100517.39
2018-10-18T02:00:50.817Z,100517.23
2018-10-18T02:03:23.557Z,100518.56
2018-10-18T02:05:55.934Z,100523.02
2018-10-18T02:08:28.282Z,100519.63
2018-10-18T02:11:01.053Z,100526.64
2018-10-18T02:13:33.517Z,100525.01
2018-10-18T02:16:06.673Z,100522.75
2018-10-18T02:18:40.301Z,100527.59
2018-10-18T02:21:12.705Z,100522.11
2018-10-18T02:23:46.233Z,100528.25
2018-10-18T02:26:19.100Z,100523.72
2018-10-18T02:28:51.746Z,100522.87
2018-10-18T02:31:24.941Z,100530.36
2018-10-18T02:33:58.008Z,100525.64
2018-10-18T02:36:30.350Z,100531.44
2018-10-18T02:39:04.615Z,100532.71
2018-10-18T02:41:37.593Z,100536.22
2018-10-18T02:44:09.985Z,100539.05
2018-10-18T02:46:42.324Z,100537.89
2018-10-18T02:49:15.125Z,100538.86
2018-10-18T02:51:47.452Z,100533.46
2018-10-18T02:54:19.992Z,100540.07
2018-10-18T02:56:54.657Z,100536.05
2018-10-18T02:59:27.016Z,100539.23
2018-10-18T03:01:59.369Z,100539.33
2018-10-18T03:04:32.156Z,100539.75
2018-10-18T03:07:04.970Z,100541.30
2018-10-18T03:09:37.303Z,100541.35
2018-10-18T03:12:10.193Z,100544.09
2018-10-18T03:14:42.619Z,100535.80
2018-10-18T03:17:14.954Z,100541.25
2018-10-18T03:19:47.661Z,100542.57
2018-10-18T03:22:20.645Z,100535.09
2018-10-18T03:24:53.690Z,100542.44
2018-10-18T03:27:26.504Z,100538.11
2018-10-18T03:29:59.743Z,100542.81
2018-10-18T03:32:33.714Z,100533.23
2018-10-18T03:35:08.149Z,100533.91
2018-10-18T03:37:40.776Z,100535.29
2018-10-18T03:40:13.225Z,100541.91
2018-10-18T03:42:48.067Z,100542.13
2018-10-18T03:45:20.588Z,100542.12
2018-10-18T03:47:53.185Z,100544.22
2018-10-18T03:50:25.985Z,100544.45
2018-10-18T03:52:58.275Z,100549.89
2018-10-18T03:55:30.640Z,100553.05
2018-10-18T03:58:02.901Z,100560.69
2018-10-18T04:00:34.591Z,100562.81
2018-10-18T04:03:07.237Z,100566.51
2018-10-18T04:05:39.626Z,100566.99
2018-10-18T04:08:13.253Z,100563.14
2018-10-18T04:10:46.024Z,100566.11
2018-10-18T04:13:19.198Z,100563.11
2018-10-18T04:15:51.584Z,100567.13
2018-10-18T04:18:25.474Z,100573.32
2018-10-18T04:20:57.807Z,100568.27
2018-10-18T04:23:32.979Z,100559.34
2018-10-18T04:26:05.789Z,100558.00
2018-10-18T04:28:38.108Z,100558.19
2018-10-18T04:31:10.897Z,100563.81
2018-10-18T04:33:43.701Z,100565.66
2018-10-18T04:36:16.677Z,100571.97
2018-10-18T04:38:48.944Z,100566.75
2018-10-18T04:41:21.841Z,100575.31
2018-10-18T04:43:56.018Z,100572.55
2018-10-18T04:46:29.416Z,100572.37
2018-10-18T04:49:02.138Z,100571.17
2018-10-18T04:51:34.573Z,100577.52
2018-10-18T04:54:07.481Z,100581.39
2018-10-18T04:56:40.934Z,100586.22
2018-10-18T04:59:13.235Z,100587.53
2018-10-18T05:01:46.323Z,100587.80
2018-10-18T05:04:19.033Z,100589.32
2018-10-18T05:06:51.411Z,100591.33
2018-10-18T05:09:23.734Z,100596.06
2018-10-18T05:11:56.416Z,100598.42
2018-10-18T05:14:28.842Z,100603.05
2018-10-18T05:17:02.102Z,100611.72
2018-10-18T05:19:34.680Z,100604.41
2018-10-18T05:22:24.801Z,100600.03
2018-10-18T05:24:57.619Z,100607.78
2018-10-18T05:27:31.266Z,100598.61
2018-10-18T05:30:06.713Z,100602.34
2018-10-18T05:32:39.333Z,100600.09
2018-10-18T05:35:12.202Z,100596.80
2018-10-18T05:37:44.752Z,100605.50
2018-10-18T05:40:17.213Z,100601.18
2018-10-18T05:42:51.915Z,100602.58
2018-10-18T05:45:24.529Z,100604.91
2018-10-18T05:47:58.051Z,100611.44
2018-10-18T05:50:30.731Z,100618.08
2018-10-18T05:53:03.573Z,100627.92
2018-10-18T05:55:36.229Z,100627.44
2018-10-18T05:58:10.391Z,100630.28
2018-10-18T06:00:42.985Z,100634.73
2018-10-18T06:03:16.488Z,100638.13
2018-10-18T06:05:50.462Z,100642.04
2018-10-18T06:08:23.415Z,100643.80
2018-10-18T06:11:29.369Z,100645.75
2018-10-18T06:14:03.397Z,100648.26
2018-10-18T06:16:35.932Z,100648.53
2018-10-18T06:19:09.964Z,100648.75
2018-10-18T06:21:42.513Z,100652.96
2018-10-18T06:24:15.152Z,100656.52
2018-10-18T06:26:48.241Z,100660.82
2018-10-18T06:29:20.842Z,100664.17
2018-10-18T06:31:55.509Z,100666.78
2018-10-18T06:34:30.265Z,100669.61
2018-10-18T06:37:03.136Z,100672.80
2018-10-18T06:39:37.025Z,100668.11
2018-10-18T06:42:09.512Z,100669.12
2018-10-18T06:44:43.933Z,100673.27
2018-10-18T06:47:17.161Z,100668.57
2018-10-18T06:49:51.532Z,100670.87
2018-10-18T06:52:24.132Z,100669.86
2018-10-18T06:54:57.111Z,100666.98
2018-10-18T06:57:29.550Z,100661.84
2018-10-18T07:00:05.171Z,100659.61
2018-10-18T07:02:37.897Z,100659.05
2018-10-18T07:05:13.362Z,100657.35
2018-10-18T07:07:48.299Z,100662.25
2018-10-18T07:10:21.303Z,100659.97
2018-10-18T07:12:54.009Z,100660.15
2018-10-18T07:15:26.741Z,100662.12
2018-10-18T07:17:59.644Z,100660.70
2018-10-18T07:20:34.306Z,100665.28
2018-10-18T07:23:09.152Z,100673.64
2018-10-18T07:25:43.796Z,100678.84
2018-10-18T07:28:16.285Z,100678.45
2018-10-18T07:30:50.893Z,100680.18
2018-10-18T07:33:25.583Z,100685.83
2018-10-18T07:35:59.828Z,100689.44
2018-10-18T07:38:35.466Z,100687.38
2018-10-18T07:41:08.827Z,100690.83
2018-10-18T07:43:42.682Z,100694.11
2018-10-18T07:46:16.879Z,100693.74
2018-10-18T07:48:50.154Z,100694.11
2018-10-18T07:51:22.884Z,100686.80
2018-10-18T07:53:55.794Z,100690.88
2018-10-18T07:56:29.029Z,100697.95
2018-10-18T07:59:02.322Z,100701.94
2018-10-18T08:01:35.452Z,100696.87
2018-10-18T08:04:07.965Z,100699.86
2018-10-18T08:06:40.573Z,100700.66
2018-10-18T08:09:14.157Z,100706.74
2018-10-18T08:11:51.582Z,100706.34
2018-10-18T08:14:25.763Z,100711.12
2018-10-18T08:16:58.752Z,100710.88
2018-10-18T08:19:35.269Z,100712.77
2018-10-18T08:22:08.533Z,100718.41
2018-10-18T08:24:41.131Z,100717.47
2018-10-18T08:27:17.789Z,100714.77
2018-10-18T08:29:51.960Z,100719.42
2018-10-18T08:32:32.479Z,100718.04
2018-10-18T08:35:06.018Z,100721.47
2018-10-18T08:37:40.221Z,100726.70
2018-10-18T08:40:13.450Z,100724.39
2018-10-18T08:42:46.759Z,100729.33
2018-10-18T08:45:21.122Z,100733.11
2018-10-18T08:47:54.695Z,100742.03
2018-10-18T08:50:28.127Z,100743.02
2018-10-18T08:53:01.389Z,100741.71
2018-10-18T08:55:34.012Z,100746.20
2018-10-18T08:58:08.387Z,100740.88
2018-10-18T09:00:42.056Z,100741.97
2018-10-18T09:03:14.788Z,100742.03
2018-10-18T09:05:49.185Z,100741.84
2018-10-18T09:08:24.222Z,100747.88
2018-10-18T09:11:01.638Z,100748.93
2018-10-18T09:13:39.041Z,100753.32
2018-10-18T09:16:13.232Z,100751.70
2018-10-18T09:18:47.748Z,100741.50
2018-10-18T09:21:21.333Z,100745.47
2018-10-18T09:23:55.753Z,100748.07
2018-10-18T09:26:30.815Z,100747.73
2018-10-18T09:29:03.558Z,100746.95
2018-10-18T09:31:37.077Z,100744.55
2018-10-18T09:34:12.285Z,100743.20
2018-10-18T09:36:44.807Z,100749.89
2018-10-18T09:39:20.967Z,100748.30
2018-10-18T09:41:54.476Z,100750.45
2018-10-18T09:44:30.156Z,100749.59
2018-10-18T09:47:02.660Z,100751.63
2018-10-18T09:49:37.447Z,100756.75
2018-10-18T09:52:10.941Z,100754.23
2018-10-18T09:54:43.790Z,100753.67
2018-10-18T09:57:16.544Z,100756.65
2018-10-18T09:59:55.102Z,100755.84
2018-10-18T10:02:51.972Z,100767.23
2018-10-18T10:05:41.923Z,100765.35
2018-10-18T10:08:15.103Z,100765.41
2018-10-18T10:10:48.524Z,100762.84
2018-10-18T10:13:25.156Z,100763.11
2018-10-18T10:16:00.768Z,100766.75
2018-10-18T10:18:34.877Z,100764.78
2018-10-18T10:21:08.165Z,100759.62
2018-10-18T10:23:41.375Z,100761.91
2018-10-18T10:26:16.058Z,100757.97
2018-10-18T10:28:50.889Z,100754.52
2018-10-18T10:31:23.725Z,100757.49
2018-10-18T10:33:57.137Z,100757.08
2018-10-18T10:36:32.005Z,100758.75
2018-10-18T10:39:07.261Z,100755.50
2018-10-18T10:41:44.165Z,100763.28
2018-10-18T10:44:17.431Z,100757.38
2018-10-18T10:46:50.854Z,100753.89
2018-10-18T10:49:24.957Z,100760.59
2018-10-18T10:51:58.982Z,100760.80
2018-10-18T10:54:32.577Z,100759.17
2018-10-18T10:57:07.387Z,100757.27
2018-10-18T10:59:41.391Z,100745.05
2018-10-18T11:02:15.924Z,100749.41
2018-10-18T11:04:49.628Z,100745.91
2018-10-18T11:07:23.404Z,100736.09
2018-10-18T11:09:56.689Z,100729.74
2018-10-18T11:12:33.420Z,100730.88
2018-10-18T11:15:08.977Z,100737.22
2018-10-18T11:17:43.913Z,100736.14
2018-10-18T11:20:21.137Z,100730.80
2018-10-18T11:22:54.026Z,100732.41
2018-10-18T11:25:28.582Z,100727.77
2018-10-18T11:28:03.669Z,100729.73
2018-10-18T11:30:38.270Z,100734.92
2018-10-18T11:33:12.955Z,100731.72
2018-10-18T11:35:46.289Z,100740.20
2018-10-18T11:38:21.210Z,100741.64
2018-10-18T11:40:54.945Z,100740.27
2018-10-18T11:43:30.731Z,100743.55
2018-10-18T11:46:06.115Z,100734.73
2018-10-18T11:48:39.419Z,100731.13
2018-10-18T11:51:12.715Z,100729.78
2018-10-18T11:53:48.470Z,100728.60
2018-10-18T11:56:21.088Z,100721.45
2018-10-18T11:58:55.041Z,100724.16
2018-10-18T12:01:31.690Z,100715.24
2018-10-18T12:04:12.173Z,100719.09
2018-10-18T12:06:46.108Z,100717.94
2018-10-18T12:09:21.389Z,100725.90
2018-10-18T12:11:54.619Z,100721.34
2018-10-18T12:14:29.693Z,100719.36
2018-10-18T12:17:04.233Z,100718.98
2018-10-18T12:19:36.829Z,100715.00
2018-10-18T12:22:12.215Z,100713.51
2018-10-18T12:24:46.117Z,100713.06
2018-10-18T12:27:20.196Z,100715.12
2018-10-18T12:29:54.184Z,100712.39
2018-10-18T12:32:29.018Z,100708.31
2018-10-18T12:35:06.162Z,100703.61
2018-10-18T12:37:41.448Z,100704.51
2018-10-18T12:40:16.313Z,100714.42
2018-10-18T12:42:51.181Z,100719.52
2018-10-18T12:45:24.040Z,100716.52
2018-10-18T12:47:59.752Z,100716.20
2018-10-18T12:50:33.093Z,100716.78
2018-10-18T12:53:07.353Z,100714.19
2018-10-18T12:55:50.341Z,100708.82
2018-10-18T12:58:27.736Z,100714.58
2018-10-18T13:01:03.316Z,100711.65
2018-10-18T13:03:39.631Z,100710.84
2018-10-18T13:06:13.036Z,100713.41
2018-10-18T13:08:55.723Z,100715.72
2018-10-18T13:11:33.564Z,100712.63
2018-10-18T13:14:07.936Z,100712.77
2018-10-18T13:16:43.974Z,100713.03
2018-10-18T13:19:20.306Z,100713.58
2018-10-18T13:21:55.846Z,100706.86
2018-10-18T13:24:30.548Z,100714.38
2018-10-18T13:27:06.554Z,100718.19
2018-10-18T13:29:40.384Z,100713.47
2018-10-18T13:32:14.522Z,100707.46
2018-10-18T13:34:51.185Z,100704.51
2018-10-18T13:37:25.024Z,100706.06
2018-10-18T13:39:59.310Z,100708.09
2018-10-18T13:42:32.010Z,100703.33
2018-10-18T13:45:09.729Z,100702.13
2018-10-18T13:47:47.413Z,100701.07
2018-10-18T13:50:23.006Z,100700.41
2018-10-18T13:52:58.334Z,100697.34
2018-10-18T13:55:33.730Z,100702.88
2018-10-18T13:58:10.169Z,100701.00
2018-10-18T14:00:44.214Z,100704.53
2018-10-18T14:03:18.970Z,100706.08
2018-10-18T14:05:51.689Z,100704.22
2018-10-18T14:08:28.337Z,100705.19
2018-10-18T14:11:02.309Z,100711.09
2018-10-18T14:13:37.604Z,100703.64
2018-10-18T14:16:10.516Z,100708.61
2018-10-18T14:18:45.937Z,100709.13
2018-10-18T14:21:21.061Z,100707.78
2018-10-18T14:23:56.791Z,100712.42
2018-10-18T14:26:31.808Z,100710.16
2018-10-18T14:29:05.275Z,100710.36
2018-10-18T14:31:40.300Z,100708.31
2018-10-18T14:34:14.097Z,100702.89
2018-10-18T14:36:48.227Z,100705.88
2018-10-18T14:39:22.624Z,100709.05
2018-10-18T14:41:56.610Z,100707.03
2018-10-18T14:44:30.443Z,100706.88
2018-10-18T14:47:09.110Z,100705.89
2018-10-18T14:49:42.894Z,100706.33
2018-10-18T14:52:15.639Z,100701.11
2018-10-18T14:54:48.824Z,100702.71
2018-10-18T14:57:22.322Z,100695.42
2018-10-18T14:59:55.273Z,100695.83
2018-10-18T15:02:28.228Z,100698.74
2018-10-18T15:05:02.434Z,100699.73
2018-10-18T15:07:35.970Z,100703.28
2018-10-18T15:10:12.593Z,100701.95
2018-10-18T15:12:46.344Z,100699.47
2018-10-18T15:15:20.404Z,100705.61
2018-10-18T15:17:54.350Z,100709.31
2018-10-18T15:20:29.260Z,100711.58
2018-10-18T15:23:03.928Z,100709.22
2018-10-18T15:25:37.805Z,100711.83
2018-10-18T15:28:11.235Z,100712.28
2018-10-18T15:30:46.326Z,100711.94
2018-10-18T15:33:20.347Z,100713.34
2018-10-18T15:35:55.525Z,100716.06
2018-10-18T15:38:29.355Z,100717.98
2018-10-18T15:43:36.261Z,100724.38
2018-10-18T15:46:08.969Z,100722.93
2018-10-18T15:48:42.729Z,100720.32
2018-10-18T15:51:17.648Z,100723.73
2018-10-18T15:53:52.687Z,100720.70
2018-10-18T15:56:25.694Z,100718.46
2018-10-18T15:58:58.859Z,100721.20
2018-10-18T16:01:32.121Z,100719.72
2018-10-18T16:04:06.145Z,100723.16
2018-10-18T16:06:38.929Z,100715.56
2018-10-18T16:09:17.038Z,100720.55
2018-10-18T16:11:51.041Z,100723.95
2018-10-18T16:14:24.701Z,100715.70
2018-10-18T16:17:03.457Z,100723.32
2018-10-18T16:19:37.195Z,100730.83
2018-10-18T16:22:11.259Z,100734.66
2018-10-18T16:24:49.587Z,100739.25
2018-10-18T16:27:23.946Z,100740.34
2018-10-18T16:29:58.439Z,100737.72
2018-10-18T16:32:32.011Z,100753.88
2018-10-18T16:35:10.312Z,100750.47
2018-10-18T16:37:46.113Z,100754.81
2018-10-18T16:40:24.006Z,100760.94
2018-10-18T16:42:57.126Z,100762.80
2018-10-18T16:45:30.549Z,100757.95
2018-10-18T16:48:05.728Z,100757.79
2018-10-18T16:50:38.521Z,100761.77
2018-10-18T16:53:11.278Z,100763.67
2018-10-18T16:55:46.008Z,100767.39
2018-10-18T16:58:20.214Z,100767.03
2018-10-18T17:00:53.744Z,100764.43
2018-10-18T17:03:28.652Z,100771.83
2018-10-18T17:06:02.005Z,100766.99
2018-10-18T17:08:34.728Z,100773.31
2018-10-18T17:11:11.838Z,100773.11
2018-10-18T17:13:48.608Z,100773.35
2018-10-18T17:16:24.888Z,100774.59
2018-10-18T17:18:59.371Z,100779.37
2018-10-18T17:21:34.895Z,100781.56
2018-10-18T17:24:10.751Z,100778.37
2018-10-18T17:26:45.609Z,100777.89
2018-10-18T17:29:20.302Z,100778.63
2018-10-18T17:31:57.433Z,100777.73
2018-10-18T17:34:31.543Z,100781.73
2018-10-18T17:37:05.010Z,100778.47
2018-10-18T17:39:38.470Z,100778.08
2018-10-18T17:42:11.361Z,100787.31
2018-10-18T17:44:45.514Z,100790.71
2018-10-18T17:47:19.674Z,100796.66
2018-10-18T17:49:56.013Z,100792.02
2018-10-18T17:52:29.319Z,100792.78
2018-10-18T17:55:04.818Z,100791.34
2018-10-18T17:57:38.734Z,100793.11
2018-10-18T18:00:24.385Z,100791.45
2018-10-18T18:02:58.614Z,100787.98
2018-10-18T18:05:33.214Z,100788.98
2018-10-18T18:08:08.160Z,100790.94
2018-10-18T18:10:41.470Z,100796.77
2018-10-18T18:13:17.000Z,100801.14
2018-10-18T18:15:51.047Z,100797.64
2018-10-18T18:18:24.730Z,100797.13
2018-10-18T18:20:58.355Z,100788.78
2018-10-18T18:23:32.777Z,100803.50
2018-10-18T18:26:08.745Z,100800.33
2018-10-18T18:28:43.678Z,100801.53
2018-10-18T18:31:21.169Z,100807.52
2018-10-18T18:33:57.131Z,100813.27
2018-10-18T18:36:31.414Z,100814.69
2018-10-18T18:39:08.234Z,100820.09
2018-10-18T18:41:41.116Z,100814.23
2018-10-18T18:44:15.540Z,100823.52
2018-10-18T18:46:48.747Z,100826.01
2018-10-18T18:49:22.494Z,100827.56
2018-10-18T18:51:58.547Z,100832.34
2018-10-18T18:54:33.081Z,100838.92
2018-10-18T18:57:08.392Z,100837.91
2018-10-18T18:59:40.918Z,100838.09
2018-10-18T19:02:16.300Z,100841.77
2018-10-18T19:04:49.764Z,100839.39
2018-10-18T19:07:22.425Z,100838.71
2018-10-18T19:09:56.424Z,100838.63
2018-10-18T19:12:30.773Z,100844.17
2018-10-18T19:15:09.530Z,100846.84
2018-10-18T19:17:45.064Z,100848.11
2018-10-18T19:20:18.696Z,100851.03
2018-10-18T19:22:55.434Z,100854.44
2018-10-18T19:25:29.494Z,100857.42
2018-10-18T19:28:03.006Z,100857.55
2018-10-18T19:30:38.785Z,100854.02
2018-10-18T19:33:11.578Z,100861.39
2018-10-18T19:35:46.149Z,100862.44
2018-10-18T19:38:21.254Z,100866.02
2018-10-18T19:41:00.190Z,100869.63
2018-10-18T19:43:34.847Z,100863.03
2018-10-18T19:46:11.844Z,100869.54
2018-10-18T19:48:47.337Z,100873.22
2018-10-18T19:51:20.760Z,100876.36
2018-10-18T19:53:53.589Z,100876.73
2018-10-18T19:56:33.487Z,100875.91
2018-10-18T19:59:07.621Z,100875.60
2018-10-18T20:01:41.804Z,100877.51
2018-10-18T20:04:19.469Z,100877.27
2018-10-18T20:06:54.097Z,100871.80
2018-10-18T20:09:26.812Z,100872.27
2018-10-18T20:12:00.235Z,100875.78
2018-10-18T20:14:38.548Z,100878.42
2018-10-18T20:17:11.963Z,100880.20
2018-10-18T20:19:44.698Z,100875.20
2018-10-18T20:22:19.514Z,100888.13
2018-10-18T20:24:52.784Z,100891.11
2018-10-18T20:27:29.175Z,100891.63
2018-10-18T20:30:04.163Z,100891.79
2018-10-18T20:32:37.458Z,100890.80
2018-10-18T20:35:12.736Z,100884.13
2018-10-18T20:37:46.190Z,100881.50
2018-10-18T20:40:21.520Z,100888.89
2018-10-18T20:42:55.867Z,100889.29
2018-10-18T20:45:36.122Z,100892.72
2018-10-18T20:48:10.185Z,100892.81
2018-10-18T20:50:44.550Z,100896.38
2018-10-18T20:53:24.772Z,100897.34
2018-10-18T20:56:01.066Z,100892.05
2018-10-18T20:58:40.444Z,100888.19
2018-10-18T21:01:14.308Z,100891.14
2018-10-18T21:03:48.313Z,100886.77
2018-10-18T21:06:24.306Z,100891.75
2018-10-18T21:08:57.739Z,100889.97
2018-10-18T21:11:32.493Z,100889.76
2018-10-18T21:14:07.085Z,100898.41
2018-10-18T21:16:43.346Z,100889.17
2018-10-18T21:19:16.534Z,100890.77
2018-10-18T21:21:51.505Z,100889.04
2018-10-18T21:24:24.923Z,100890.17
2018-10-18T21:26:57.799Z,100888.44
2018-10-18T21:29:33.219Z,100875.17
2018-10-18T21:32:05.956Z,100881.45
2018-10-18T21:34:38.794Z,100869.23
2018-10-18T21:37:15.831Z,100870.00
2018-10-18T21:39:50.861Z,100867.58
2018-10-18T21:42:23.855Z,100870.95
2018-10-18T21:44:57.194Z,100868.48
2018-10-18T21:47:32.332Z,100866.28
2018-10-18T21:50:06.436Z,100867.43
2018-10-18T21:52:40.533Z,100861.33
2018-10-18T21:55:14.710Z,100867.92
2018-10-18T21:57:47.335Z,100868.50
2018-10-18T22:00:22.722Z,100868.13
2018-10-18T22:02:57.233Z,100874.08
2018-10-18T22:05:29.714Z,100873.41
2018-10-18T22:08:04.546Z,100871.84
2018-10-18T22:10:37.223Z,100874.34
2018-10-18T22:13:10.112Z,100873.73
2018-10-18T22:15:45.508Z,100871.33
2018-10-18T22:18:18.474Z,100869.55
2018-10-18T22:20:54.643Z,100866.77
2018-10-18T22:23:27.469Z,100866.72
2018-10-18T22:26:02.052Z,100866.00
2018-10-18T22:28:36.068Z,100862.38
2018-10-18T22:31:08.658Z,100863.03
2018-10-18T22:33:42.220Z,100861.91
2018-10-18T22:36:15.056Z,100861.34
2018-10-18T22:38:47.809Z,100856.81
2018-10-18T22:41:23.249Z,100856.71
2018-10-18T22:43:59.322Z,100854.31
2018-10-18T22:46:33.514Z,100852.69
2018-10-18T22:49:08.627Z,100851.48
2018-10-18T22:51:41.130Z,100851.34
2018-10-18T22:54:13.685Z,100844.58
2018-10-18T22:56:47.698Z,100846.09
2018-10-18T22:59:22.573Z,100845.23
2018-10-18T23:01:55.332Z,100844.26
2018-10-18T23:04:28.577Z,100850.58
2018-10-18T23:07:01.084Z,100848.41
2018-10-18T23:09:33.599Z,100847.57
2018-10-18T23:12:07.515Z,100851.74
2018-10-18T23:14:40.877Z,100845.14
2018-10-18T23:17:13.431Z,100847.03
2018-10-18T23:19:46.377Z,100849.33
2018-10-18T23:22:19.015Z,100846.38
2018-10-18T23:24:51.601Z,100849.36
2018-10-18T23:27:29.584Z,100847.29
2018-10-18T23:30:04.417Z,100849.27
2018-10-18T23:32:36.988Z,100846.70
2018-10-18T23:35:10.485Z,100845.03
2018-10-18T23:37:43.509Z,100848.28
2018-10-18T23:40:17.214Z,100845.80
2018-10-18T23:42:51.104Z,100847.66
2018-10-18T23:45:24.470Z,100839.77
2018-10-18T23:47:57.037Z,100834.63
2018-10-18T23:50:30.097Z,100834.70
2018-10-18T23:53:03.248Z,100835.21
2018-10-18T23:55:36.323Z,100839.59
2018-10-18T23:58:10.442Z,100835.06
